Share

Ashgabat, Turkmenistan

10:31 AM TMT on April 25, 2014 (GMT +0500)
Ashgabat (UTAA) Elev 689 ft | 37.98 °N, 58.37 °E | Change Station

Current weather conditions updated 31 minutes ago

Partly Cloudy
Partly Cloudy
66 °F
Feels Like 66 °F
N
4
Wind Variable Wind from NNW
Sunrise 6:18 AM
Sunset 7:51 PM
Moon Waning Crescent

Today is forecast to be nearly the same temperature as yesterday.

Pressure 30.12 in
Visibility 6.2 miles
Clouds Few 5000 ft
Dew Point 41 °F
Humidity 40%
Rainfall 0.00 in
Snow Depth Not available.
UV 5 out of 16
Pollen Not available.
Air Quality Not available.
Flu Activity Not available.
METAR UTAA 250500Z 33002MPS 290V360 9999 FEW050 19/05 Q1020 R30/CLRD70 NOSIG

More Conditions Fewer Conditions

Pressure 30.12 in
Visibility 6.2 miles
Clouds Few 5000 ft
Dew Point 41 °F
Humidity 40%
Rainfall 0.00 in
Snow Depth Not available.
UV 5 out of 16
Pollen Not available.
Air Quality Not available.
Flu Activity Not available.
METAR UTAA 250500Z 33002MPS 290V360 9999 FEW050 19/05 Q1020 R30/CLRD70 NOSIG

More Conditions Fewer Conditions

10-Day Weather Forecast

Almanac

Astronomy

Apr. 25, 2014 Rise Set
Actual Time 6:18 AM TMT 7:51 PM TMT
Civil Twilight 5:50 AM TMT 8:19 PM TMT
Nautical Twilight 5:17 AM TMT 8:53 PM TMT
Astronomical Twilight 4:41 AM TMT 9:28 PM TMT
Moon 3:47 AM TMT 3:50 PM TMT
Length of Visible Light 14h 28m
Length of Day
13h 33m
Tomorrow will be 2m 12s longer.
Waning Crescent, 19% of the Moon is Illuminated
Today
Waning Crescent
Apr 29
New
May 6
First Quarter
May 14
Full
May 21
Last Quarter

Yesterday's Extremes

Country Highs Country Lows

Community

  • Deer in evening light
    Deer in evening light
  • Critter
    Critter
  • Jone Runs Falls
    Jone Runs Falls
  • Easter in Shenandoah National Park
    Easter in Shenandoah National Park
  • Sunset at Apalachicola Bay, Florida
    Sunset at Apalachicola Bay, Florida

WunderPhotos

Upload Photos

1,704,861 photos uploaded!

WunderBlogs® & News

Nearby

Snow Depth

Not available.

Coastal Water Temperatures

Place Temperature
No Stations Reporting

Earthquake Activity

City Distance Mag. Time & Date
No recent earthquake activity has been reported nearby.
Minimum magnitude displayed is 2.5.

Nearby Weather Stations

There are no personal weather stations in this area.

What do you think?

We're not finished. Please let us know what you like, what you don't like, and what you are still missing.